Aviation Digital Data Service (ADDS)

Output produced by METARs form (1104 UTC 13 December 2017)
found at http://www.aviationweather.gov/adds/metars/
 
ELLX 131050Z 18011KT 0900 R24/1100N SN BKN002 00/00 Q1007 R24///99// NOSIG
TAF ELLX 130500Z 1306/1412 20008KT 9999 SCT005 BKN015 
     TEMPO 1308/1311 -SN BKN012 
     BECMG 1314/1316 20015G25KT 
     TEMPO 1316/1324 26020G35KT 3000 RA BKN008 
     TEMPO 1400/1412 26020G40KT SHRA 
     PROB40 1402/1405 TSGS BKN015CB